sensor_id;sensor_type;location;lat;lon;timestamp;P1;durP1;ratioP1;P2;durP2;ratioP2
78646;SDS011;67961;43.460;3.762;2023-11-18T00:01:20;3.75;;;1.73;;
78646;SDS011;67961;43.460;3.762;2023-11-18T00:03:45;12.65;;;6.50;;
78646;SDS011;67961;43.460;3.762;2023-11-18T00:06:11;4.03;;;2.15;;
78646;SDS011;67961;43.460;3.762;2023-11-18T00:08:37;2.20;;;1.48;;
78646;SDS011;67961;43.460;3.762;2023-11-18T00:11:03;2.50;;;1.50;;
78646;SDS011;67961;43.460;3.762;2023-11-18T00:13:29;2.38;;;1.70;;
78646;SDS011;67961;43.460;3.762;2023-11-18T00:15:55;2.45;;;1.42;;
78646;SDS011;67961;43.460;3.762;2023-11-18T00:18:21;2.97;;;1.95;;
78646;SDS011;67961;43.460;3.762;2023-11-18T00:20:47;2.28;;;1.40;;
78646;SDS011;67961;43.460;3.762;2023-11-18T00:23:13;2.30;;;1.30;;
78646;SDS011;67961;43.460;3.762;2023-11-18T00:25:39;2.10;;;1.50;;
78646;SDS011;67961;43.460;3.762;2023-11-18T00:28:05;1.77;;;1.20;;
78646;SDS011;67961;43.460;3.762;2023-11-18T00:30:34;3.75;;;1.65;;
78646;SDS011;67961;43.460;3.762;2023-11-18T00:33:02;3.67;;;2.08;;
78646;SDS011;67961;43.460;3.762;2023-11-18T00:35:28;1.77;;;1.23;;
78646;SDS011;67961;43.460;3.762;2023-11-18T00:37:57;2.08;;;1.52;;
78646;SDS011;67961;43.460;3.762;2023-11-18T00:40:23;3.85;;;1.17;;
78646;SDS011;67961;43.460;3.762;2023-11-18T00:42:49;2.15;;;1.33;;
78646;SDS011;67961;43.460;3.762;2023-11-18T00:45:15;2.55;;;1.25;;
78646;SDS011;67961;43.460;3.762;2023-11-18T00:47:40;1.38;;;1.20;;
78646;SDS011;67961;43.460;3.762;2023-11-18T00:50:06;1.05;;;0.98;;
78646;SDS011;67961;43.460;3.762;2023-11-18T00:52:38;1.92;;;1.35;;
78646;SDS011;67961;43.460;3.762;2023-11-18T00:55:09;7.28;;;4.78;;
78646;SDS011;67961;43.460;3.762;2023-11-18T00:57:36;4.32;;;2.28;;
78646;SDS011;67961;43.460;3.762;2023-11-18T01:00:04;3.15;;;1.80;;
78646;SDS011;67961;43.460;3.762;2023-11-18T01:02:34;2.10;;;1.60;;
78646;SDS011;67961;43.460;3.762;2023-11-18T01:05:00;3.72;;;1.38;;
78646;SDS011;67961;43.460;3.762;2023-11-18T01:07:25;2.65;;;1.58;;
78646;SDS011;67961;43.460;3.762;2023-11-18T01:09:51;1.88;;;1.45;;
78646;SDS011;67961;43.460;3.762;2023-11-18T01:12:17;1.70;;;1.30;;
78646;SDS011;67961;43.460;3.762;2023-11-18T01:14:42;1.30;;;0.98;;
78646;SDS011;67961;43.460;3.762;2023-11-18T01:17:08;0.80;;;0.80;;
78646;SDS011;67961;43.460;3.762;2023-11-18T01:19:38;1.80;;;1.20;;
78646;SDS011;67961;43.460;3.762;2023-11-18T01:22:04;1.65;;;1.17;;
78646;SDS011;67961;43.460;3.762;2023-11-18T01:24:31;1.00;;;0.98;;
78646;SDS011;67961;43.460;3.762;2023-11-18T01:26:57;2.22;;;1.40;;
78646;SDS011;67961;43.460;3.762;2023-11-18T01:29:24;1.05;;;0.98;;
78646;SDS011;67961;43.460;3.762;2023-11-18T01:31:50;1.27;;;1.00;;
78646;SDS011;67961;43.460;3.762;2023-11-18T01:34:15;1.75;;;1.20;;
78646;SDS011;67961;43.460;3.762;2023-11-18T01:36:42;2.25;;;1.77;;
78646;SDS011;67961;43.460;3.762;2023-11-18T01:39:11;2.38;;;1.27;;
78646;SDS011;67961;43.460;3.762;2023-11-18T01:41:38;1.25;;;1.02;;
78646;SDS011;67961;43.460;3.762;2023-11-18T01:44:06;1.88;;;1.20;;
78646;SDS011;67961;43.460;3.762;2023-11-18T01:46:33;3.38;;;1.50;;
78646;SDS011;67961;43.460;3.762;2023-11-18T01:49:01;1.90;;;1.30;;
78646;SDS011;67961;43.460;3.762;2023-11-18T01:51:29;1.88;;;1.10;;
78646;SDS011;67961;43.460;3.762;2023-11-18T01:53:55;1.58;;;1.10;;
78646;SDS011;67961;43.460;3.762;2023-11-18T01:56:24;2.03;;;1.55;;
78646;SDS011;67961;43.460;3.762;2023-11-18T01:58:52;1.42;;;1.05;;
78646;SDS011;67961;43.460;3.762;2023-11-18T02:01:18;1.33;;;1.15;;
78646;SDS011;67961;43.460;3.762;2023-11-18T02:03:44;4.68;;;1.30;;
78646;SDS011;67961;43.460;3.762;2023-11-18T02:06:10;3.13;;;1.27;;
78646;SDS011;67961;43.460;3.762;2023-11-18T02:08:35;2.35;;;1.20;;
78646;SDS011;67961;43.460;3.762;2023-11-18T02:11:07;2.05;;;1.10;;
78646;SDS011;67961;43.460;3.762;2023-11-18T02:13:51;1.65;;;0.95;;
78646;SDS011;67961;43.460;3.762;2023-11-18T02:16:20;2.28;;;1.40;;
78646;SDS011;67961;43.460;3.762;2023-11-18T02:18:47;1.30;;;1.20;;
78646;SDS011;67961;43.460;3.762;2023-11-18T02:21:14;1.35;;;1.10;;
78646;SDS011;67961;43.460;3.762;2023-11-18T02:23:43;1.60;;;1.38;;
78646;SDS011;67961;43.460;3.762;2023-11-18T02:26:09;4.97;;;1.10;;
78646;SDS011;67961;43.460;3.762;2023-11-18T02:28:35;1.35;;;1.20;;
78646;SDS011;67961;43.460;3.762;2023-11-18T02:31:05;1.40;;;1.30;;
78646;SDS011;67961;43.460;3.762;2023-11-18T02:33:42;2.58;;;1.27;;
78646;SDS011;67961;43.460;3.762;2023-11-18T02:36:58;2.70;;;1.30;;
78646;SDS011;67961;43.460;3.762;2023-11-18T02:39:08;3.78;;;1.52;;
78646;SDS011;67961;43.460;3.762;2023-11-18T02:41:42;2.10;;;1.58;;
78646;SDS011;67961;43.460;3.762;2023-11-18T02:44:12;2.13;;;1.52;;
78646;SDS011;67961;43.460;3.762;2023-11-18T02:46:42;3.95;;;2.00;;
78646;SDS011;67961;43.460;3.762;2023-11-18T02:49:09;1.60;;;1.20;;
78646;SDS011;67961;43.460;3.762;2023-11-18T02:51:35;1.42;;;1.30;;
78646;SDS011;67961;43.460;3.762;2023-11-18T02:54:07;1.63;;;1.30;;
78646;SDS011;67961;43.460;3.762;2023-11-18T02:56:38;3.17;;;2.00;;
78646;SDS011;67961;43.460;3.762;2023-11-18T02:59:04;2.17;;;1.20;;
78646;SDS011;67961;43.460;3.762;2023-11-18T03:01:33;4.18;;;1.88;;
78646;SDS011;67961;43.460;3.762;2023-11-18T03:03:59;1.90;;;1.35;;
78646;SDS011;67961;43.460;3.762;2023-11-18T03:06:26;1.85;;;1.27;;
78646;SDS011;67961;43.460;3.762;2023-11-18T03:08:52;3.45;;;1.30;;
78646;SDS011;67961;43.460;3.762;2023-11-18T03:11:20;2.97;;;1.38;;
78646;SDS011;67961;43.460;3.762;2023-11-18T03:13:47;0.98;;;0.98;;
78646;SDS011;67961;43.460;3.762;2023-11-18T03:16:13;2.25;;;1.08;;
78646;SDS011;67961;43.460;3.762;2023-11-18T03:18:42;1.27;;;1.17;;
78646;SDS011;67961;43.460;3.762;2023-11-18T03:21:14;2.80;;;1.25;;
78646;SDS011;67961;43.460;3.762;2023-11-18T03:23:40;1.60;;;1.17;;
78646;SDS011;67961;43.460;3.762;2023-11-18T03:26:09;1.27;;;1.10;;
78646;SDS011;67961;43.460;3.762;2023-11-18T03:28:35;1.20;;;1.10;;
78646;SDS011;67961;43.460;3.762;2023-11-18T03:31:02;1.35;;;1.15;;
78646;SDS011;67961;43.460;3.762;2023-11-18T03:33:29;1.88;;;1.10;;
78646;SDS011;67961;43.460;3.762;2023-11-18T03:35:55;3.10;;;1.65;;
78646;SDS011;67961;43.460;3.762;2023-11-18T03:38:21;2.38;;;1.20;;
78646;SDS011;67961;43.460;3.762;2023-11-18T03:40:47;1.27;;;1.10;;
78646;SDS011;67961;43.460;3.762;2023-11-18T03:43:13;1.23;;;0.88;;
78646;SDS011;67961;43.460;3.762;2023-11-18T03:45:42;2.10;;;1.40;;
78646;SDS011;67961;43.460;3.762;2023-11-18T03:48:08;2.55;;;1.20;;
78646;SDS011;67961;43.460;3.762;2023-11-18T03:50:34;2.83;;;1.10;;
78646;SDS011;67961;43.460;3.762;2023-11-18T03:52:59;2.85;;;1.40;;
78646;SDS011;67961;43.460;3.762;2023-11-18T03:55:29;2.58;;;1.27;;
78646;SDS011;67961;43.460;3.762;2023-11-18T03:57:55;1.90;;;1.10;;
78646;SDS011;67961;43.460;3.762;2023-11-18T04:00:22;2.47;;;1.20;;
78646;SDS011;67961;43.460;3.762;2023-11-18T04:02:54;3.37;;;1.17;;
78646;SDS011;67961;43.460;3.762;2023-11-18T04:05:20;2.83;;;1.15;;
78646;SDS011;67961;43.460;3.762;2023-11-18T04:07:49;2.00;;;1.10;;
78646;SDS011;67961;43.460;3.762;2023-11-18T04:10:15;1.05;;;0.95;;
78646;SDS011;67961;43.460;3.762;2023-11-18T04:12:43;2.35;;;1.27;;
78646;SDS011;67961;43.460;3.762;2023-11-18T04:15:12;1.27;;;1.17;;
78646;SDS011;67961;43.460;3.762;2023-11-18T04:17:38;1.42;;;1.20;;
78646;SDS011;67961;43.460;3.762;2023-11-18T04:20:05;3.03;;;1.00;;
78646;SDS011;67961;43.460;3.762;2023-11-18T04:22:41;1.90;;;1.02;;
78646;SDS011;67961;43.460;3.762;2023-11-18T04:25:08;1.17;;;1.08;;
78646;SDS011;67961;43.460;3.762;2023-11-18T04:27:35;5.30;;;1.27;;
78646;SDS011;67961;43.460;3.762;2023-11-18T04:30:01;1.85;;;1.05;;
78646;SDS011;67961;43.460;3.762;2023-11-18T04:32:27;2.13;;;1.23;;
78646;SDS011;67961;43.460;3.762;2023-11-18T04:34:53;1.90;;;1.08;;
78646;SDS011;67961;43.460;3.762;2023-11-18T04:37:18;1.75;;;1.20;;
78646;SDS011;67961;43.460;3.762;2023-11-18T04:39:44;2.53;;;0.90;;
78646;SDS011;67961;43.460;3.762;2023-11-18T04:42:11;1.65;;;1.23;;
78646;SDS011;67961;43.460;3.762;2023-11-18T04:44:36;1.45;;;0.95;;
78646;SDS011;67961;43.460;3.762;2023-11-18T04:47:03;1.17;;;1.08;;
78646;SDS011;67961;43.460;3.762;2023-11-18T04:49:29;3.65;;;1.00;;
78646;SDS011;67961;43.460;3.762;2023-11-18T04:51:55;2.63;;;1.27;;
78646;SDS011;67961;43.460;3.762;2023-11-18T04:54:20;2.78;;;1.55;;
78646;SDS011;67961;43.460;3.762;2023-11-18T04:56:46;1.45;;;0.85;;
78646;SDS011;67961;43.460;3.762;2023-11-18T04:59:12;0.95;;;0.80;;
78646;SDS011;67961;43.460;3.762;2023-11-18T05:01:38;2.03;;;1.30;;
78646;SDS011;67961;43.460;3.762;2023-11-18T05:04:04;1.20;;;0.77;;
78646;SDS011;67961;43.460;3.762;2023-11-18T05:06:31;1.52;;;1.00;;
78646;SDS011;67961;43.460;3.762;2023-11-18T05:08:56;2.63;;;1.10;;
78646;SDS011;67961;43.460;3.762;2023-11-18T05:11:22;1.30;;;1.17;;
78646;SDS011;67961;43.460;3.762;2023-11-18T05:13:48;1.33;;;1.00;;
78646;SDS011;67961;43.460;3.762;2023-11-18T05:16:14;1.70;;;0.80;;
78646;SDS011;67961;43.460;3.762;2023-11-18T05:18:39;2.85;;;0.95;;
78646;SDS011;67961;43.460;3.762;2023-11-18T05:21:05;4.32;;;0.90;;
78646;SDS011;67961;43.460;3.762;2023-11-18T05:23:33;1.17;;;0.95;;
78646;SDS011;67961;43.460;3.762;2023-11-18T05:25:59;2.33;;;1.30;;
78646;SDS011;67961;43.460;3.762;2023-11-18T05:28:25;2.47;;;0.98;;
78646;SDS011;67961;43.460;3.762;2023-11-18T05:30:51;2.72;;;1.15;;
78646;SDS011;67961;43.460;3.762;2023-11-18T05:33:17;1.77;;;0.90;;
78646;SDS011;67961;43.460;3.762;2023-11-18T05:35:43;1.83;;;0.90;;
78646;SDS011;67961;43.460;3.762;2023-11-18T05:38:16;1.40;;;1.25;;
78646;SDS011;67961;43.460;3.762;2023-11-18T05:40:52;2.33;;;1.20;;
78646;SDS011;67961;43.460;3.762;2023-11-18T05:43:25;1.23;;;0.90;;
78646;SDS011;67961;43.460;3.762;2023-11-18T05:48:39;1.05;;;0.73;;
78646;SDS011;67961;43.460;3.762;2023-11-18T05:51:12;1.40;;;0.90;;
78646;SDS011;67961;43.460;3.762;2023-11-18T05:53:41;1.02;;;0.90;;
78646;SDS011;67961;43.460;3.762;2023-11-18T05:56:11;3.05;;;1.13;;
78646;SDS011;67961;43.460;3.762;2023-11-18T05:58:37;2.90;;;0.82;;
78646;SDS011;67961;43.460;3.762;2023-11-18T06:01:08;1.25;;;0.80;;
78646;SDS011;67961;43.460;3.762;2023-11-18T06:03:34;1.17;;;0.80;;
78646;SDS011;67961;43.460;3.762;2023-11-18T06:06:04;0.50;;;0.50;;
78646;SDS011;67961;43.460;3.762;2023-11-18T06:08:35;1.25;;;1.00;;
78646;SDS011;67961;43.460;3.762;2023-11-18T06:11:02;0.95;;;0.70;;
78646;SDS011;67961;43.460;3.762;2023-11-18T06:13:47;2.05;;;1.05;;
78646;SDS011;67961;43.460;3.762;2023-11-18T06:16:18;0.80;;;0.80;;
78646;SDS011;67961;43.460;3.762;2023-11-18T06:18:48;1.73;;;1.02;;
78646;SDS011;67961;43.460;3.762;2023-11-18T06:21:25;1.17;;;0.90;;
78646;SDS011;67961;43.460;3.762;2023-11-18T06:23:55;2.13;;;0.90;;
78646;SDS011;67961;43.460;3.762;2023-11-18T06:26:25;3.17;;;1.17;;
78646;SDS011;67961;43.460;3.762;2023-11-18T06:28:52;5.35;;;2.83;;
78646;SDS011;67961;43.460;3.762;2023-11-18T06:31:25;3.65;;;2.30;;
78646;SDS011;67961;43.460;3.762;2023-11-18T06:33:50;2.58;;;1.60;;
78646;SDS011;67961;43.460;3.762;2023-11-18T06:36:20;1.50;;;1.20;;
78646;SDS011;67961;43.460;3.762;2023-11-18T06:38:48;3.70;;;1.30;;
78646;SDS011;67961;43.460;3.762;2023-11-18T06:41:21;2.05;;;1.08;;
78646;SDS011;67961;43.460;3.762;2023-11-18T06:43:48;1.42;;;0.80;;
78646;SDS011;67961;43.460;3.762;2023-11-18T06:46:31;3.28;;;1.02;;
78646;SDS011;67961;43.460;3.762;2023-11-18T06:48:59;1.02;;;0.93;;
78646;SDS011;67961;43.460;3.762;2023-11-18T06:51:29;1.23;;;0.85;;
78646;SDS011;67961;43.460;3.762;2023-11-18T06:53:57;1.27;;;0.80;;
78646;SDS011;67961;43.460;3.762;2023-11-18T06:56:26;2.85;;;0.80;;
78646;SDS011;67961;43.460;3.762;2023-11-18T06:58:53;1.23;;;0.85;;
78646;SDS011;67961;43.460;3.762;2023-11-18T07:01:19;0.95;;;0.85;;
78646;SDS011;67961;43.460;3.762;2023-11-18T07:03:45;1.80;;;0.98;;
78646;SDS011;67961;43.460;3.762;2023-11-18T07:06:18;2.50;;;1.33;;
78646;SDS011;67961;43.460;3.762;2023-11-18T07:08:50;1.10;;;1.00;;
78646;SDS011;67961;43.460;3.762;2023-11-18T07:11:16;1.63;;;0.80;;
78646;SDS011;67961;43.460;3.762;2023-11-18T07:13:42;1.38;;;0.70;;
78646;SDS011;67961;43.460;3.762;2023-11-18T07:16:09;1.38;;;0.88;;
78646;SDS011;67961;43.460;3.762;2023-11-18T07:18:35;5.07;;;3.25;;
78646;SDS011;67961;43.460;3.762;2023-11-18T07:21:02;6.70;;;3.50;;
78646;SDS011;67961;43.460;3.762;2023-11-18T07:23:32;3.67;;;2.25;;
78646;SDS011;67961;43.460;3.762;2023-11-18T07:25:58;1.38;;;0.95;;
78646;SDS011;67961;43.460;3.762;2023-11-18T07:28:24;1.27;;;0.93;;
78646;SDS011;67961;43.460;3.762;2023-11-18T07:30:50;2.08;;;1.20;;
78646;SDS011;67961;43.460;3.762;2023-11-18T07:33:16;5.10;;;1.77;;
78646;SDS011;67961;43.460;3.762;2023-11-18T07:35:42;1.58;;;1.08;;
78646;SDS011;67961;43.460;3.762;2023-11-18T07:38:08;2.90;;;1.50;;
78646;SDS011;67961;43.460;3.762;2023-11-18T07:40:36;2.42;;;1.33;;
78646;SDS011;67961;43.460;3.762;2023-11-18T07:43:07;2.42;;;1.17;;
78646;SDS011;67961;43.460;3.762;2023-11-18T07:45:36;4.43;;;1.45;;
78646;SDS011;67961;43.460;3.762;2023-11-18T07:48:06;1.40;;;1.02;;
78646;SDS011;67961;43.460;3.762;2023-11-18T07:50:34;1.88;;;1.15;;
78646;SDS011;67961;43.460;3.762;2023-11-18T07:53:00;2.13;;;1.58;;
78646;SDS011;67961;43.460;3.762;2023-11-18T07:55:27;3.85;;;2.20;;
78646;SDS011;67961;43.460;3.762;2023-11-18T07:57:53;7.05;;;2.58;;
78646;SDS011;67961;43.460;3.762;2023-11-18T08:00:19;5.15;;;2.85;;
78646;SDS011;67961;43.460;3.762;2023-11-18T08:02:46;7.85;;;3.42;;
78646;SDS011;67961;43.460;3.762;2023-11-18T08:05:12;8.88;;;3.90;;
78646;SDS011;67961;43.460;3.762;2023-11-18T08:07:40;9.05;;;5.00;;
78646;SDS011;67961;43.460;3.762;2023-11-18T08:10:06;10.60;;;5.22;;
78646;SDS011;67961;43.460;3.762;2023-11-18T08:12:38;9.68;;;5.50;;
78646;SDS011;67961;43.460;3.762;2023-11-18T08:15:05;12.95;;;6.05;;
78646;SDS011;67961;43.460;3.762;2023-11-18T08:17:34;10.20;;;5.28;;
78646;SDS011;67961;43.460;3.762;2023-11-18T08:20:00;11.25;;;4.75;;
78646;SDS011;67961;43.460;3.762;2023-11-18T08:22:26;10.15;;;4.50;;
78646;SDS011;67961;43.460;3.762;2023-11-18T08:24:51;8.45;;;4.25;;
78646;SDS011;67961;43.460;3.762;2023-11-18T08:27:17;9.35;;;3.85;;
78646;SDS011;67961;43.460;3.762;2023-11-18T08:29:43;9.05;;;4.70;;
78646;SDS011;67961;43.460;3.762;2023-11-18T08:32:11;8.57;;;4.95;;
78646;SDS011;67961;43.460;3.762;2023-11-18T08:34:37;10.70;;;5.85;;
78646;SDS011;67961;43.460;3.762;2023-11-18T08:37:03;13.98;;;5.80;;
78646;SDS011;67961;43.460;3.762;2023-11-18T08:39:29;8.43;;;5.50;;
78646;SDS011;67961;43.460;3.762;2023-11-18T08:41:56;6.50;;;3.75;;
78646;SDS011;67961;43.460;3.762;2023-11-18T08:44:22;5.57;;;3.15;;
78646;SDS011;67961;43.460;3.762;2023-11-18T08:46:52;5.43;;;3.50;;
78646;SDS011;67961;43.460;3.762;2023-11-18T08:49:18;4.53;;;2.88;;
78646;SDS011;67961;43.460;3.762;2023-11-18T08:51:49;5.45;;;3.05;;
78646;SDS011;67961;43.460;3.762;2023-11-18T08:54:21;7.35;;;3.00;;
78646;SDS011;67961;43.460;3.762;2023-11-18T08:57:02;5.90;;;2.63;;
78646;SDS011;67961;43.460;3.762;2023-11-18T08:59:48;3.00;;;1.92;;
78646;SDS011;67961;43.460;3.762;2023-11-18T09:02:17;4.05;;;1.95;;
78646;SDS011;67961;43.460;3.762;2023-11-18T09:04:48;2.90;;;1.60;;
78646;SDS011;67961;43.460;3.762;2023-11-18T09:07:14;4.13;;;1.73;;
78646;SDS011;67961;43.460;3.762;2023-11-18T09:09:40;1.67;;;1.55;;
78646;SDS011;67961;43.460;3.762;2023-11-18T09:12:06;3.00;;;1.77;;
78646;SDS011;67961;43.460;3.762;2023-11-18T09:14:33;2.50;;;1.65;;
78646;SDS011;67961;43.460;3.762;2023-11-18T09:17:02;5.18;;;2.17;;
78646;SDS011;67961;43.460;3.762;2023-11-18T09:19:28;2.38;;;1.77;;
78646;SDS011;67961;43.460;3.762;2023-11-18T09:21:54;2.67;;;1.50;;
78646;SDS011;67961;43.460;3.762;2023-11-18T09:24:20;2.67;;;1.52;;
78646;SDS011;67961;43.460;3.762;2023-11-18T09:26:49;2.60;;;1.45;;
78646;SDS011;67961;43.460;3.762;2023-11-18T09:29:16;2.33;;;1.50;;
78646;SDS011;67961;43.460;3.762;2023-11-18T09:31:47;1.52;;;1.40;;
78646;SDS011;67961;43.460;3.762;2023-11-18T09:34:17;8.90;;;2.03;;
78646;SDS011;67961;43.460;3.762;2023-11-18T09:36:51;3.35;;;1.20;;
78646;SDS011;67961;43.460;3.762;2023-11-18T09:39:20;2.05;;;1.45;;
78646;SDS011;67961;43.460;3.762;2023-11-18T09:42:02;3.63;;;1.30;;
78646;SDS011;67961;43.460;3.762;2023-11-18T09:44:33;1.83;;;1.30;;
78646;SDS011;67961;43.460;3.762;2023-11-18T09:47:02;3.38;;;1.25;;
78646;SDS011;67961;43.460;3.762;2023-11-18T09:49:35;1.27;;;1.00;;
78646;SDS011;67961;43.460;3.762;2023-11-18T09:52:09;1.77;;;1.17;;
78646;SDS011;67961;43.460;3.762;2023-11-18T09:54:45;1.52;;;1.17;;
78646;SDS011;67961;43.460;3.762;2023-11-18T09:57:31;1.08;;;0.98;;
78646;SDS011;67961;43.460;3.762;2023-11-18T10:00:03;2.00;;;0.93;;
78646;SDS011;67961;43.460;3.762;2023-11-18T10:02:45;1.35;;;0.90;;
78646;SDS011;67961;43.460;3.762;2023-11-18T10:05:12;1.38;;;1.05;;
78646;SDS011;67961;43.460;3.762;2023-11-18T10:07:41;1.48;;;1.30;;
78646;SDS011;67961;43.460;3.762;2023-11-18T10:10:10;3.45;;;1.20;;
78646;SDS011;67961;43.460;3.762;2023-11-18T10:12:45;1.42;;;1.08;;
78646;SDS011;67961;43.460;3.762;2023-11-18T10:15:17;5.35;;;1.23;;
78646;SDS011;67961;43.460;3.762;2023-11-18T10:17:45;2.70;;;1.25;;
78646;SDS011;67961;43.460;3.762;2023-11-18T10:20:22;4.57;;;1.65;;
78646;SDS011;67961;43.460;3.762;2023-11-18T10:23:09;1.98;;;1.50;;
78646;SDS011;67961;43.460;3.762;2023-11-18T10:25:36;2.75;;;1.70;;
78646;SDS011;67961;43.460;3.762;2023-11-18T10:28:07;3.85;;;1.60;;
78646;SDS011;67961;43.460;3.762;2023-11-18T10:30:44;1.75;;;1.40;;
78646;SDS011;67961;43.460;3.762;2023-11-18T10:33:13;2.25;;;1.40;;
78646;SDS011;67961;43.460;3.762;2023-11-18T10:35:48;2.33;;;1.33;;
78646;SDS011;67961;43.460;3.762;2023-11-18T10:38:20;2.40;;;1.50;;
78646;SDS011;67961;43.460;3.762;2023-11-18T10:40:50;2.85;;;1.70;;
78646;SDS011;67961;43.460;3.762;2023-11-18T10:43:23;3.53;;;2.08;;
78646;SDS011;67961;43.460;3.762;2023-11-18T10:46:11;4.38;;;2.53;;
78646;SDS011;67961;43.460;3.762;2023-11-18T10:51:08;4.72;;;2.03;;
78646;SDS011;67961;43.460;3.762;2023-11-18T10:53:42;3.17;;;1.60;;
78646;SDS011;67961;43.460;3.762;2023-11-18T10:56:21;3.72;;;2.17;;
78646;SDS011;67961;43.460;3.762;2023-11-18T10:58:57;2.15;;;1.70;;
78646;SDS011;67961;43.460;3.762;2023-11-18T11:01:36;3.30;;;1.83;;
78646;SDS011;67961;43.460;3.762;2023-11-18T11:04:12;2.50;;;1.48;;
78646;SDS011;67961;43.460;3.762;2023-11-18T11:06:42;3.67;;;1.73;;
78646;SDS011;67961;43.460;3.762;2023-11-18T11:09:17;2.10;;;1.63;;
78646;SDS011;67961;43.460;3.762;2023-11-18T11:11:49;2.60;;;1.70;;
78646;SDS011;67961;43.460;3.762;2023-11-18T11:14:25;6.75;;;2.13;;
78646;SDS011;67961;43.460;3.762;2023-11-18T11:17:00;3.22;;;1.73;;
78646;SDS011;67961;43.460;3.762;2023-11-18T11:20:07;2.10;;;1.50;;
78646;SDS011;67961;43.460;3.762;2023-11-18T11:28:15;3.53;;;1.98;;
78646;SDS011;67961;43.460;3.762;2023-11-18T11:30:46;4.15;;;1.80;;
78646;SDS011;67961;43.460;3.762;2023-11-18T11:36:09;3.47;;;1.90;;
78646;SDS011;67961;43.460;3.762;2023-11-18T11:38:38;3.28;;;2.03;;
78646;SDS011;67961;43.460;3.762;2023-11-18T11:41:04;3.78;;;2.20;;
78646;SDS011;67961;43.460;3.762;2023-11-18T11:43:33;2.65;;;1.63;;
78646;SDS011;67961;43.460;3.762;2023-11-18T11:46:00;2.65;;;1.55;;
78646;SDS011;67961;43.460;3.762;2023-11-18T11:48:35;2.92;;;1.45;;
78646;SDS011;67961;43.460;3.762;2023-11-18T11:51:05;3.78;;;2.10;;
78646;SDS011;67961;43.460;3.762;2023-11-18T11:54:06;3.60;;;2.00;;
78646;SDS011;67961;43.460;3.762;2023-11-18T11:56:44;2.00;;;1.80;;
78646;SDS011;67961;43.460;3.762;2023-11-18T11:59:15;2.35;;;1.63;;
78646;SDS011;67961;43.460;3.762;2023-11-18T12:01:41;2.00;;;1.10;;
78646;SDS011;67961;43.460;3.762;2023-11-18T12:04:12;1.77;;;1.08;;
78646;SDS011;67961;43.460;3.762;2023-11-18T12:06:46;2.05;;;0.88;;
78646;SDS011;67961;43.460;3.762;2023-11-18T12:09:13;1.00;;;0.85;;
78646;SDS011;67961;43.460;3.762;2023-11-18T12:11:45;1.23;;;0.95;;
78646;SDS011;67961;43.460;3.762;2023-11-18T12:14:14;1.55;;;0.90;;
78646;SDS011;67961;43.460;3.762;2023-11-18T12:19:29;1.40;;;0.90;;
78646;SDS011;67961;43.460;3.762;2023-11-18T12:22:02;3.63;;;1.63;;
78646;SDS011;67961;43.460;3.762;2023-11-18T12:24:38;4.53;;;2.15;;
78646;SDS011;67961;43.460;3.762;2023-11-18T12:27:04;5.13;;;1.90;;
78646;SDS011;67961;43.460;3.762;2023-11-18T12:29:42;4.40;;;2.10;;
78646;SDS011;67961;43.460;3.762;2023-11-18T12:32:09;2.38;;;1.85;;
78646;SDS011;67961;43.460;3.762;2023-11-18T12:34:53;2.65;;;1.83;;
78646;SDS011;67961;43.460;3.762;2023-11-18T12:37:33;2.95;;;2.05;;
78646;SDS011;67961;43.460;3.762;2023-11-18T12:45:43;2.53;;;1.90;;
78646;SDS011;67961;43.460;3.762;2023-11-18T12:48:09;6.05;;;1.83;;
78646;SDS011;67961;43.460;3.762;2023-11-18T12:50:40;3.63;;;1.85;;
78646;SDS011;67961;43.460;3.762;2023-11-18T12:53:08;4.07;;;1.92;;
78646;SDS011;67961;43.460;3.762;2023-11-18T12:55:35;2.55;;;1.75;;
78646;SDS011;67961;43.460;3.762;2023-11-18T12:58:03;3.35;;;2.05;;
78646;SDS011;67961;43.460;3.762;2023-11-18T13:00:30;3.75;;;2.20;;
78646;SDS011;67961;43.460;3.762;2023-11-18T13:02:59;4.22;;;2.33;;
78646;SDS011;67961;43.460;3.762;2023-11-18T13:05:25;3.67;;;2.05;;
78646;SDS011;67961;43.460;3.762;2023-11-18T13:07:56;4.25;;;1.85;;
78646;SDS011;67961;43.460;3.762;2023-11-18T13:10:26;5.30;;;2.03;;
78646;SDS011;67961;43.460;3.762;2023-11-18T13:12:55;7.05;;;2.33;;
78646;SDS011;67961;43.460;3.762;2023-11-18T13:15:23;2.72;;;1.98;;
78646;SDS011;67961;43.460;3.762;2023-11-18T13:17:59;6.72;;;2.03;;
78646;SDS011;67961;43.460;3.762;2023-11-18T13:20:27;3.42;;;1.40;;
78646;SDS011;67961;43.460;3.762;2023-11-18T13:22:54;4.07;;;1.50;;
78646;SDS011;67961;43.460;3.762;2023-11-18T13:25:21;7.15;;;1.75;;
78646;SDS011;67961;43.460;3.762;2023-11-18T13:27:50;3.72;;;1.50;;
78646;SDS011;67961;43.460;3.762;2023-11-18T13:30:16;1.25;;;1.15;;
78646;SDS011;67961;43.460;3.762;2023-11-18T13:32:43;2.20;;;1.15;;
78646;SDS011;67961;43.460;3.762;2023-11-18T13:35:12;1.70;;;0.80;;
78646;SDS011;67961;43.460;3.762;2023-11-18T13:37:45;2.97;;;1.20;;
78646;SDS011;67961;43.460;3.762;2023-11-18T13:40:14;2.63;;;1.00;;
78646;SDS011;67961;43.460;3.762;2023-11-18T13:42:43;4.28;;;1.20;;
78646;SDS011;67961;43.460;3.762;2023-11-18T13:45:11;2.65;;;1.48;;
78646;SDS011;67961;43.460;3.762;2023-11-18T13:47:48;2.55;;;1.83;;
78646;SDS011;67961;43.460;3.762;2023-11-18T13:50:16;2.67;;;1.13;;
78646;SDS011;67961;43.460;3.762;2023-11-18T13:52:42;4.88;;;1.45;;
78646;SDS011;67961;43.460;3.762;2023-11-18T13:55:08;2.13;;;1.25;;
78646;SDS011;67961;43.460;3.762;2023-11-18T13:57:42;1.92;;;1.35;;
78646;SDS011;67961;43.460;3.762;2023-11-18T14:00:09;1.27;;;0.90;;
78646;SDS011;67961;43.460;3.762;2023-11-18T14:02:40;3.10;;;1.30;;
78646;SDS011;67961;43.460;3.762;2023-11-18T14:05:14;3.60;;;1.40;;
78646;SDS011;67961;43.460;3.762;2023-11-18T14:07:41;3.35;;;1.23;;
78646;SDS011;67961;43.460;3.762;2023-11-18T14:10:08;1.75;;;1.23;;
78646;SDS011;67961;43.460;3.762;2023-11-18T14:12:38;2.47;;;1.17;;
78646;SDS011;67961;43.460;3.762;2023-11-18T14:15:22;2.08;;;1.20;;
78646;SDS011;67961;43.460;3.762;2023-11-18T14:17:48;3.90;;;1.42;;
78646;SDS011;67961;43.460;3.762;2023-11-18T14:20:17;2.15;;;1.45;;
78646;SDS011;67961;43.460;3.762;2023-11-18T14:22:45;3.15;;;1.40;;
78646;SDS011;67961;43.460;3.762;2023-11-18T14:25:10;2.95;;;1.33;;
78646;SDS011;67961;43.460;3.762;2023-11-18T14:27:37;2.92;;;1.50;;
78646;SDS011;67961;43.460;3.762;2023-11-18T14:30:03;2.85;;;1.67;;
78646;SDS011;67961;43.460;3.762;2023-11-18T14:32:33;3.55;;;1.50;;
78646;SDS011;67961;43.460;3.762;2023-11-18T14:34:59;5.63;;;1.77;;
78646;SDS011;67961;43.460;3.762;2023-11-18T14:37:25;4.60;;;1.65;;
78646;SDS011;67961;43.460;3.762;2023-11-18T14:39:50;5.35;;;2.15;;
78646;SDS011;67961;43.460;3.762;2023-11-18T14:42:17;4.28;;;2.20;;
78646;SDS011;67961;43.460;3.762;2023-11-18T14:44:46;3.90;;;1.55;;
78646;SDS011;67961;43.460;3.762;2023-11-18T14:47:11;4.72;;;1.90;;
78646;SDS011;67961;43.460;3.762;2023-11-18T14:49:37;2.78;;;1.75;;
78646;SDS011;67961;43.460;3.762;2023-11-18T14:52:03;5.22;;;1.80;;
78646;SDS011;67961;43.460;3.762;2023-11-18T14:54:29;3.08;;;1.67;;
78646;SDS011;67961;43.460;3.762;2023-11-18T14:57:00;3.58;;;1.60;;
78646;SDS011;67961;43.460;3.762;2023-11-18T14:59:28;2.03;;;1.25;;
78646;SDS011;67961;43.460;3.762;2023-11-18T15:01:53;3.70;;;2.35;;
78646;SDS011;67961;43.460;3.762;2023-11-18T15:04:22;5.45;;;2.22;;
78646;SDS011;67961;43.460;3.762;2023-11-18T15:06:49;4.30;;;1.98;;
78646;SDS011;67961;43.460;3.762;2023-11-18T15:09:20;5.28;;;2.40;;
78646;SDS011;67961;43.460;3.762;2023-11-18T15:11:48;5.32;;;1.90;;
78646;SDS011;67961;43.460;3.762;2023-11-18T15:14:17;3.22;;;2.28;;
78646;SDS011;67961;43.460;3.762;2023-11-18T15:16:43;3.63;;;2.10;;
78646;SDS011;67961;43.460;3.762;2023-11-18T15:19:10;4.55;;;2.15;;
78646;SDS011;67961;43.460;3.762;2023-11-18T15:21:36;5.05;;;2.55;;